Flight Track Log - Related Links

Times and Time Zones

All times are in EDT time to prevent confusion due to time zone crossing. See the N6045S flight status page for this flight to view local times or setup timezone preferences in your user account.

Time Position Orientation Groundspeed Altitude Reporting Facility
EDT Latitude Longitude Course Direction KTS MPH feet Rate Location/Type
Thu 01:38:13 PM 41.3333 -73.5333 201° Southwest 138 159 2,200  Level New TRACON
Thu 01:39:13 PM 41.3000 -73.5500 201° Southwest 155 178 3,500 1,400 Climbing New TRACON
Thu 01:40:13 PM 41.2833 -73.6000 246° West 155 178 5,000 1,550 Climbing New TRACON
Thu 01:41:13 PM 41.2833 -73.6667 270° West 144 166 6,600 1,000 Climbing New TRACON
Thu 01:42:13 PM 41.2667 -73.7167 246° West 178 205 7,000 200 Climbing New TRACON
Thu 01:43:13 PM 41.2500 -73.7833 252° West 212 244 7,000  Level New TRACON
Thu 01:44:19 PM 41.2333 -73.8833 258° West 223 257 7,000  Level New TRACON
Thu 01:45:13 PM 41.2167 -73.9500 252° West 224 258 7,000  Level New TRACON
Thu 01:46:13 PM 41.2000 -74.0167 252° West 226 260 7,000 476 Level New TRACON
Thu 01:47:19 PM 41.1667 -74.1000 242° Southwest 199 229 8,000 476 Climbing New TRACON
Thu 01:48:19 PM 41.1500 -74.1833 255° West 212 244 8,000 53 Level New TRACON
Thu 01:49:13 PM 41.1333 -74.2333 246° West 217 250 8,100 53 Climbing New TRACON
Thu 01:50:13 PM 41.1167 -74.3167 255° West 221 254 8,100  Level New TRACON
Thu 01:51:13 PM 41.1000 -74.4000 255° West 225 259 8,100  Level New TRACON
Thu 01:52:19 PM 41.0833 -74.4833 255° West 226 260 8,100 -50 Level New TRACON
Thu 01:53:13 PM 41.0500 -74.5500 236° Southwest 227 261 8,000  Descending New TRACON
Thu 01:54:19 PM 40.9833 -74.5667 191° South 230 265 8,100 48 Climbing New TRACON
Thu 01:55:19 PM 40.9333 -74.6000 207° Southwest 230 265 8,100 -50 Level New TRACON
Thu 01:56:19 PM 40.8667 -74.6167 191° South 230 265 8,000  Descending New TRACON
Thu 01:57:19 PM 40.8167 -74.6500 207° Southwest 223 257 8,100 -300 Climbing New TRACON
Thu 01:58:19 PM 40.7667 -74.7000 217° Southwest 228 262 7,400 -1,257 Descending New TRACON
Thu 02:00:06 PM 40.6667 -74.7833 212° Southwest 224 258 4,600 -1,186 Descending Philadelphia TRACON
Thu 02:01:06 PM 40.6000 -74.7833 180° South 229 264 4,100 -263 Descending Philadelphia TRACON
Thu 02:02:00 PM 40.5500 -74.8000 194° South 221 254 4,100 -300 Level Philadelphia TRACON
Thu 02:03:06 PM 40.4833 -74.8000 180° South 219 252 3,500 -810 Descending Philadelphia TRACON
Thu 02:04:06 PM 40.4167 -74.8000 180° South 213 245 2,400 -1,000 Descending Philadelphia TRACON
Thu 02:05:00 PM 40.3667 -74.8000 180° South 192 221 1,600 -632 Descending Philadelphia TRACON
Thu 02:06:00 PM 40.3333 -74.7667 143° Southeast 145 167 1,200 -429 Descending Philadelphia TRACON
Thu 02:07:06 PM 40.3000 -74.7833 201° Southwest 117 135 700 -455 Descending Philadelphia TRACON
Thu 02:09:00 PM 40.2767 -74.8135 78° East  Level Estimated
Thu 02:16:00 PM 40.2767 -74.8135 78° East  Level Estimated

Login

Don't have an account? Register now (free) for customized features, flight alerts, and more!